sensor_id;sensor_type;location;lat;lon;timestamp;pressure;altitude;pressure_sealevel;temperature;humidity
3812;BME280;1921;49.368;11.068;2024-03-29T00:01:20;96220.81;;;5.44;89.70
3812;BME280;1921;49.368;11.068;2024-03-29T00:03:46;96263.22;;;5.79;89.02
3812;BME280;1921;49.368;11.068;2024-03-29T00:06:11;96288.09;;;5.94;88.82
3812;BME280;1921;49.368;11.068;2024-03-29T00:08:37;96223.28;;;5.66;88.51
3812;BME280;1921;49.368;11.068;2024-03-29T00:11:03;96222.56;;;5.73;88.61
3812;BME280;1921;49.368;11.068;2024-03-29T00:13:29;96221.94;;;5.71;87.82
3812;BME280;1921;49.368;11.068;2024-03-29T00:15:55;96227.38;;;5.76;87.39
3812;BME280;1921;49.368;11.068;2024-03-29T00:18:20;96222.19;;;5.76;87.59
3812;BME280;1921;49.368;11.068;2024-03-29T00:20:47;96211.31;;;5.80;87.83
3812;BME280;1921;49.368;11.068;2024-03-29T00:23:13;96169.78;;;5.52;87.75
3812;BME280;1921;49.368;11.068;2024-03-29T00:25:38;96231.88;;;5.88;87.35
3812;BME280;1921;49.368;11.068;2024-03-29T00:28:04;96188.34;;;5.56;87.81
3812;BME280;1921;49.368;11.068;2024-03-29T00:30:30;96196.69;;;5.73;87.54
3812;BME280;1921;49.368;11.068;2024-03-29T00:32:56;96264.47;;;5.98;87.35
3812;BME280;1921;49.368;11.068;2024-03-29T00:35:22;96191.03;;;5.48;87.57
3812;BME280;1921;49.368;11.068;2024-03-29T00:37:49;96229.69;;;5.71;88.13
3812;BME280;1921;49.368;11.068;2024-03-29T00:40:16;96218.84;;;5.60;87.49
3812;BME280;1921;49.368;11.068;2024-03-29T00:42:42;96219.38;;;5.56;87.53
3812;BME280;1921;49.368;11.068;2024-03-29T00:45:08;96216.25;;;5.60;87.72
3812;BME280;1921;49.368;11.068;2024-03-29T00:47:34;96201.53;;;5.61;87.58
3812;BME280;1921;49.368;11.068;2024-03-29T00:50:00;96190.19;;;5.62;86.83
3812;BME280;1921;49.368;11.068;2024-03-29T00:52:26;96224.44;;;5.79;87.03
3812;BME280;1921;49.368;11.068;2024-03-29T00:54:51;96181.50;;;5.48;87.28
3812;BME280;1921;49.368;11.068;2024-03-29T00:57:18;96196.88;;;5.71;86.92
3812;BME280;1921;49.368;11.068;2024-03-29T00:59:44;96192.94;;;5.75;86.90
3812;BME280;1921;49.368;11.068;2024-03-29T01:02:10;96194.59;;;5.83;86.77
3812;BME280;1921;49.368;11.068;2024-03-29T01:04:36;96134.59;;;5.51;86.32
3812;BME280;1921;49.368;11.068;2024-03-29T01:07:03;96191.97;;;5.91;86.67
3812;BME280;1921;49.368;11.068;2024-03-29T01:09:29;96115.44;;;5.46;86.50
3812;BME280;1921;49.368;11.068;2024-03-29T01:11:55;96108.13;;;5.49;86.66
3812;BME280;1921;49.368;11.068;2024-03-29T01:14:21;96154.63;;;5.64;86.93
3812;BME280;1921;49.368;11.068;2024-03-29T01:16:46;96117.06;;;5.47;86.35
3812;BME280;1921;49.368;11.068;2024-03-29T01:19:12;96163.88;;;5.73;86.68
3812;BME280;1921;49.368;11.068;2024-03-29T01:21:38;96122.28;;;5.53;86.09
3812;BME280;1921;49.368;11.068;2024-03-29T01:24:04;96117.69;;;5.70;85.89
3812;BME280;1921;49.368;11.068;2024-03-29T01:26:30;96131.66;;;5.76;84.96
3812;BME280;1921;49.368;11.068;2024-03-29T01:28:56;96132.19;;;5.50;85.78
3812;BME280;1921;49.368;11.068;2024-03-29T01:31:23;96174.22;;;5.73;85.73
3812;BME280;1921;49.368;11.068;2024-03-29T01:33:50;96148.72;;;5.70;85.55
3812;BME280;1921;49.368;11.068;2024-03-29T01:36:16;96039.13;;;5.13;84.80
3812;BME280;1921;49.368;11.068;2024-03-29T01:38:41;96154.84;;;5.84;84.59
3812;BME280;1921;49.368;11.068;2024-03-29T01:41:08;96119.84;;;5.66;83.86
3812;BME280;1921;49.368;11.068;2024-03-29T01:43:34;96146.00;;;5.93;83.92
3812;BME280;1921;49.368;11.068;2024-03-29T01:45:59;96139.09;;;6.00;83.72
3812;BME280;1921;49.368;11.068;2024-03-29T01:48:26;96098.34;;;5.87;83.12
3812;BME280;1921;49.368;11.068;2024-03-29T01:50:56;96115.41;;;5.97;82.51
3812;BME280;1921;49.368;11.068;2024-03-29T01:53:22;96168.56;;;6.42;82.88
3812;BME280;1921;49.368;11.068;2024-03-29T01:55:49;96074.09;;;5.67;82.02
3812;BME280;1921;49.368;11.068;2024-03-29T01:58:16;96131.03;;;6.10;81.86
3812;BME280;1921;49.368;11.068;2024-03-29T02:00:50;96125.69;;;6.11;81.00
3812;BME280;1921;49.368;11.068;2024-03-29T02:03:16;96158.94;;;6.36;81.07
3812;BME280;1921;49.368;11.068;2024-03-29T02:05:43;96125.34;;;6.21;81.44
3812;BME280;1921;49.368;11.068;2024-03-29T02:08:10;96100.28;;;6.22;80.58
3812;BME280;1921;49.368;11.068;2024-03-29T02:10:36;96130.75;;;6.47;79.36
3812;BME280;1921;49.368;11.068;2024-03-29T02:13:03;96082.16;;;6.22;79.16
3812;BME280;1921;49.368;11.068;2024-03-29T02:15:30;96141.25;;;6.67;78.65
3812;BME280;1921;49.368;11.068;2024-03-29T02:17:56;96102.72;;;6.30;78.64
3812;BME280;1921;49.368;11.068;2024-03-29T02:20:22;96145.09;;;6.50;79.31
3812;BME280;1921;49.368;11.068;2024-03-29T02:23:00;96081.28;;;6.14;78.66
3812;BME280;1921;49.368;11.068;2024-03-29T02:25:27;96151.22;;;6.70;78.63
3812;BME280;1921;49.368;11.068;2024-03-29T02:27:54;96104.09;;;6.54;78.48
3812;BME280;1921;49.368;11.068;2024-03-29T02:30:20;96138.28;;;6.70;78.28
3812;BME280;1921;49.368;11.068;2024-03-29T02:32:46;96157.91;;;6.86;77.51
3812;BME280;1921;49.368;11.068;2024-03-29T02:35:12;96072.16;;;6.40;76.90
3812;BME280;1921;49.368;11.068;2024-03-29T02:37:38;96142.81;;;6.90;75.89
3812;BME280;1921;49.368;11.068;2024-03-29T02:40:05;96084.78;;;6.56;77.07
3812;BME280;1921;49.368;11.068;2024-03-29T02:42:32;96088.22;;;6.63;76.36
3812;BME280;1921;49.368;11.068;2024-03-29T02:44:58;96094.06;;;6.72;75.70
3812;BME280;1921;49.368;11.068;2024-03-29T02:47:24;96085.84;;;6.68;75.87
3812;BME280;1921;49.368;11.068;2024-03-29T02:49:49;96091.47;;;6.72;75.85
3812;BME280;1921;49.368;11.068;2024-03-29T02:52:15;96108.50;;;6.88;75.63
3812;BME280;1921;49.368;11.068;2024-03-29T02:54:41;96104.91;;;6.89;75.91
3812;BME280;1921;49.368;11.068;2024-03-29T02:57:07;96099.56;;;6.90;75.83
3812;BME280;1921;49.368;11.068;2024-03-29T02:59:33;96073.97;;;6.81;74.51
3812;BME280;1921;49.368;11.068;2024-03-29T03:01:59;96079.63;;;6.91;74.27
3812;BME280;1921;49.368;11.068;2024-03-29T03:04:25;96096.75;;;6.92;73.75
3812;BME280;1921;49.368;11.068;2024-03-29T03:06:51;96060.00;;;6.75;73.14
3812;BME280;1921;49.368;11.068;2024-03-29T03:09:17;96086.78;;;6.95;73.45
3812;BME280;1921;49.368;11.068;2024-03-29T03:12:01;96122.81;;;7.18;72.99
3812;BME280;1921;49.368;11.068;2024-03-29T03:14:26;96069.28;;;6.97;72.57
3812;BME280;1921;49.368;11.068;2024-03-29T03:16:53;96094.06;;;7.13;72.54
3812;BME280;1921;49.368;11.068;2024-03-29T03:19:19;96051.16;;;7.04;72.13
3812;BME280;1921;49.368;11.068;2024-03-29T03:21:44;96053.56;;;7.06;71.87
3812;BME280;1921;49.368;11.068;2024-03-29T03:24:10;96094.50;;;7.23;72.54
3812;BME280;1921;49.368;11.068;2024-03-29T03:26:37;96062.59;;;7.16;71.89
3812;BME280;1921;49.368;11.068;2024-03-29T03:29:04;96102.66;;;7.20;71.83
3812;BME280;1921;49.368;11.068;2024-03-29T03:31:29;96050.88;;;6.86;71.69
3812;BME280;1921;49.368;11.068;2024-03-29T03:33:55;96087.69;;;7.09;71.80
3812;BME280;1921;49.368;11.068;2024-03-29T03:36:21;96100.50;;;7.24;71.76
3812;BME280;1921;49.368;11.068;2024-03-29T03:38:47;96103.03;;;7.11;71.84
3812;BME280;1921;49.368;11.068;2024-03-29T03:41:12;96111.25;;;7.14;72.14
3812;BME280;1921;49.368;11.068;2024-03-29T03:43:38;96087.28;;;7.12;72.20
3812;BME280;1921;49.368;11.068;2024-03-29T03:46:04;96099.69;;;7.23;72.49
3812;BME280;1921;49.368;11.068;2024-03-29T03:48:29;96090.41;;;7.01;71.72
3812;BME280;1921;49.368;11.068;2024-03-29T03:50:56;96072.06;;;6.96;72.50
3812;BME280;1921;49.368;11.068;2024-03-29T03:53:22;96075.31;;;7.11;71.95
3812;BME280;1921;49.368;11.068;2024-03-29T03:55:48;96088.94;;;7.26;72.17
3812;BME280;1921;49.368;11.068;2024-03-29T03:58:14;96044.19;;;7.05;70.58
3812;BME280;1921;49.368;11.068;2024-03-29T04:00:40;96074.13;;;7.14;71.03
3812;BME280;1921;49.368;11.068;2024-03-29T04:03:05;96105.19;;;7.07;72.48
3812;BME280;1921;49.368;11.068;2024-03-29T04:05:31;96047.22;;;6.67;72.10
3812;BME280;1921;49.368;11.068;2024-03-29T04:07:57;96026.50;;;6.73;72.54
3812;BME280;1921;49.368;11.068;2024-03-29T04:10:24;96089.31;;;7.23;71.32
3812;BME280;1921;49.368;11.068;2024-03-29T04:12:52;96083.16;;;7.24;70.90
3812;BME280;1921;49.368;11.068;2024-03-29T04:15:18;96055.31;;;6.92;70.02
3812;BME280;1921;49.368;11.068;2024-03-29T04:17:44;96101.75;;;6.93;72.00
3812;BME280;1921;49.368;11.068;2024-03-29T04:20:10;96072.25;;;6.94;71.72
3812;BME280;1921;49.368;11.068;2024-03-29T04:22:35;96066.75;;;7.17;68.11
3812;BME280;1921;49.368;11.068;2024-03-29T04:25:01;96075.03;;;7.47;68.44
3812;BME280;1921;49.368;11.068;2024-03-29T04:27:27;96071.84;;;7.45;66.02
3812;BME280;1921;49.368;11.068;2024-03-29T04:29:54;96050.63;;;7.22;66.62
3812;BME280;1921;49.368;11.068;2024-03-29T04:32:20;96065.22;;;7.36;67.92
3812;BME280;1921;49.368;11.068;2024-03-29T04:34:49;96075.91;;;7.13;67.38
3812;BME280;1921;49.368;11.068;2024-03-29T04:37:16;96107.28;;;7.32;67.94
3812;BME280;1921;49.368;11.068;2024-03-29T04:39:46;96086.97;;;7.28;68.85
3812;BME280;1921;49.368;11.068;2024-03-29T04:42:12;96127.72;;;7.48;68.15
3812;BME280;1921;49.368;11.068;2024-03-29T04:44:38;96073.22;;;7.35;67.73
3812;BME280;1921;49.368;11.068;2024-03-29T04:47:05;96041.66;;;7.24;67.07
3812;BME280;1921;49.368;11.068;2024-03-29T04:49:31;96119.41;;;7.66;67.21
3812;BME280;1921;49.368;11.068;2024-03-29T04:52:00;96058.78;;;7.19;68.68
3812;BME280;1921;49.368;11.068;2024-03-29T04:54:27;96098.53;;;7.33;68.19
3812;BME280;1921;49.368;11.068;2024-03-29T04:56:53;96144.09;;;7.55;67.71
3812;BME280;1921;49.368;11.068;2024-03-29T04:59:19;96138.41;;;7.32;68.09
3812;BME280;1921;49.368;11.068;2024-03-29T05:01:47;96081.97;;;7.27;67.93
3812;BME280;1921;49.368;11.068;2024-03-29T05:04:17;96104.69;;;7.25;67.85
3812;BME280;1921;49.368;11.068;2024-03-29T05:06:44;96165.44;;;7.57;69.60
3812;BME280;1921;49.368;11.068;2024-03-29T05:09:11;96173.88;;;7.66;70.43
3812;BME280;1921;49.368;11.068;2024-03-29T05:11:37;96130.31;;;7.07;71.77
3812;BME280;1921;49.368;11.068;2024-03-29T05:14:03;96171.31;;;7.72;69.48
3812;BME280;1921;49.368;11.068;2024-03-29T05:16:29;96143.97;;;7.76;66.87
3812;BME280;1921;49.368;11.068;2024-03-29T05:18:55;96095.88;;;7.19;66.68
3812;BME280;1921;49.368;11.068;2024-03-29T05:21:21;96174.69;;;7.66;67.30
3812;BME280;1921;49.368;11.068;2024-03-29T05:23:46;96123.78;;;7.59;68.46
3812;BME280;1921;49.368;11.068;2024-03-29T05:26:12;96134.09;;;7.45;67.85
3812;BME280;1921;49.368;11.068;2024-03-29T05:28:38;96130.53;;;7.53;67.55
3812;BME280;1921;49.368;11.068;2024-03-29T05:31:14;96174.72;;;7.79;66.01
3812;BME280;1921;49.368;11.068;2024-03-29T05:33:41;96198.13;;;7.99;66.41
3812;BME280;1921;49.368;11.068;2024-03-29T05:36:08;96148.81;;;7.38;65.67
3812;BME280;1921;49.368;11.068;2024-03-29T05:38:39;96135.19;;;7.23;66.84
3812;BME280;1921;49.368;11.068;2024-03-29T05:41:05;96122.16;;;7.57;66.09
3812;BME280;1921;49.368;11.068;2024-03-29T05:43:31;96137.34;;;7.67;65.81
3812;BME280;1921;49.368;11.068;2024-03-29T05:45:58;96120.81;;;7.81;64.53
3812;BME280;1921;49.368;11.068;2024-03-29T05:48:26;96122.63;;;7.94;64.55
3812;BME280;1921;49.368;11.068;2024-03-29T05:50:51;96161.03;;;8.19;63.53
3812;BME280;1921;49.368;11.068;2024-03-29T05:53:17;96136.41;;;7.88;64.66
3812;BME280;1921;49.368;11.068;2024-03-29T05:55:43;96174.41;;;8.09;65.77
3812;BME280;1921;49.368;11.068;2024-03-29T05:58:08;96124.66;;;7.99;66.76
3812;BME280;1921;49.368;11.068;2024-03-29T06:00:34;96131.88;;;8.23;65.74
3812;BME280;1921;49.368;11.068;2024-03-29T06:03:01;96127.88;;;8.34;65.73
3812;BME280;1921;49.368;11.068;2024-03-29T06:05:29;96151.50;;;8.52;63.92
3812;BME280;1921;49.368;11.068;2024-03-29T06:07:55;96169.88;;;8.71;63.59
3812;BME280;1921;49.368;11.068;2024-03-29T06:10:21;96134.91;;;8.47;63.41
3812;BME280;1921;49.368;11.068;2024-03-29T06:12:47;96106.09;;;8.22;63.28
3812;BME280;1921;49.368;11.068;2024-03-29T06:15:13;96182.88;;;8.71;61.72
3812;BME280;1921;49.368;11.068;2024-03-29T06:17:57;96178.66;;;8.56;61.81
3812;BME280;1921;49.368;11.068;2024-03-29T06:20:23;96126.53;;;8.45;63.29
3812;BME280;1921;49.368;11.068;2024-03-29T06:22:49;96141.50;;;8.56;60.75
3812;BME280;1921;49.368;11.068;2024-03-29T06:25:15;96148.09;;;8.72;61.88
3812;BME280;1921;49.368;11.068;2024-03-29T06:27:41;96133.09;;;8.54;60.39
3812;BME280;1921;49.368;11.068;2024-03-29T06:30:13;96104.31;;;8.22;61.72
3812;BME280;1921;49.368;11.068;2024-03-29T06:32:40;96174.06;;;8.72;62.02
3812;BME280;1921;49.368;11.068;2024-03-29T06:35:06;96196.44;;;8.93;62.04
3812;BME280;1921;49.368;11.068;2024-03-29T06:37:32;96126.84;;;9.01;60.71
3812;BME280;1921;49.368;11.068;2024-03-29T06:39:58;96132.22;;;9.13;59.70
3812;BME280;1921;49.368;11.068;2024-03-29T06:42:24;96116.63;;;9.13;59.30
3812;BME280;1921;49.368;11.068;2024-03-29T06:44:49;96150.75;;;9.30;59.73
3812;BME280;1921;49.368;11.068;2024-03-29T06:47:15;96115.34;;;9.35;59.46
3812;BME280;1921;49.368;11.068;2024-03-29T06:49:41;96072.50;;;9.31;58.45
3812;BME280;1921;49.368;11.068;2024-03-29T06:52:07;96140.34;;;9.81;57.93
3812;BME280;1921;49.368;11.068;2024-03-29T06:54:32;96116.97;;;9.68;57.59
3812;BME280;1921;49.368;11.068;2024-03-29T06:56:59;96118.28;;;9.52;56.41
3812;BME280;1921;49.368;11.068;2024-03-29T06:59:26;96135.16;;;9.75;57.18
3812;BME280;1921;49.368;11.068;2024-03-29T07:01:51;96084.38;;;9.65;57.19
3812;BME280;1921;49.368;11.068;2024-03-29T07:04:22;96090.03;;;9.87;56.48
3812;BME280;1921;49.368;11.068;2024-03-29T07:06:49;96109.63;;;10.28;56.19
3812;BME280;1921;49.368;11.068;2024-03-29T07:09:18;96149.47;;;10.60;55.36
3812;BME280;1921;49.368;11.068;2024-03-29T07:11:50;96106.84;;;10.48;54.71
3812;BME280;1921;49.368;11.068;2024-03-29T07:14:17;95970.28;;;9.31;55.06
3812;BME280;1921;49.368;11.068;2024-03-29T07:16:43;96098.25;;;10.47;55.33
3812;BME280;1921;49.368;11.068;2024-03-29T07:19:10;96079.31;;;10.77;54.70
3812;BME280;1921;49.368;11.068;2024-03-29T07:21:48;96022.75;;;10.59;53.59
3812;BME280;1921;49.368;11.068;2024-03-29T07:24:13;96121.63;;;11.52;54.20
3812;BME280;1921;49.368;11.068;2024-03-29T07:26:40;96078.56;;;11.62;52.39
3812;BME280;1921;49.368;11.068;2024-03-29T07:29:06;96084.94;;;11.47;52.45
3812;BME280;1921;49.368;11.068;2024-03-29T07:31:33;96092.53;;;11.67;53.68
3812;BME280;1921;49.368;11.068;2024-03-29T07:33:59;96055.41;;;11.17;52.14
3812;BME280;1921;49.368;11.068;2024-03-29T07:36:25;96125.91;;;11.83;52.19
3812;BME280;1921;49.368;11.068;2024-03-29T07:38:52;96098.28;;;11.57;52.20
3812;BME280;1921;49.368;11.068;2024-03-29T07:41:18;96148.66;;;11.76;52.27
3812;BME280;1921;49.368;11.068;2024-03-29T07:43:55;96125.38;;;11.93;51.12
3812;BME280;1921;49.368;11.068;2024-03-29T07:46:38;96086.97;;;11.94;51.46
3812;BME280;1921;49.368;11.068;2024-03-29T07:49:05;96100.13;;;12.40;50.09
3812;BME280;1921;49.368;11.068;2024-03-29T07:51:31;96123.94;;;12.62;50.58
3812;BME280;1921;49.368;11.068;2024-03-29T07:53:57;96141.66;;;12.72;49.81
3812;BME280;1921;49.368;11.068;2024-03-29T07:56:24;96186.50;;;13.11;49.07
3812;BME280;1921;49.368;11.068;2024-03-29T07:58:55;96176.03;;;13.23;49.11
3812;BME280;1921;49.368;11.068;2024-03-29T08:01:21;96171.56;;;13.46;47.66
3812;BME280;1921;49.368;11.068;2024-03-29T08:03:50;96146.75;;;13.49;47.54
3812;BME280;1921;49.368;11.068;2024-03-29T08:06:17;96096.72;;;13.22;50.01
3812;BME280;1921;49.368;11.068;2024-03-29T08:08:44;96124.13;;;13.71;46.86
3812;BME280;1921;49.368;11.068;2024-03-29T08:11:14;96090.72;;;13.79;46.15
3812;BME280;1921;49.368;11.068;2024-03-29T08:13:41;96095.50;;;13.82;46.16
3812;BME280;1921;49.368;11.068;2024-03-29T08:16:07;96103.81;;;14.07;46.52
3812;BME280;1921;49.368;11.068;2024-03-29T08:18:33;96138.22;;;14.56;46.17
3812;BME280;1921;49.368;11.068;2024-03-29T08:20:59;96095.44;;;14.72;46.00
3812;BME280;1921;49.368;11.068;2024-03-29T08:23:26;96138.91;;;15.41;44.82
3812;BME280;1921;49.368;11.068;2024-03-29T08:25:52;96083.91;;;15.12;43.30
3812;BME280;1921;49.368;11.068;2024-03-29T08:28:18;96077.13;;;15.16;44.76
3812;BME280;1921;49.368;11.068;2024-03-29T08:31:00;96103.19;;;15.45;42.90
3812;BME280;1921;49.368;11.068;2024-03-29T08:33:27;96091.41;;;15.25;43.81
3812;BME280;1921;49.368;11.068;2024-03-29T08:35:53;96067.31;;;14.90;45.55
3812;BME280;1921;49.368;11.068;2024-03-29T08:38:19;96042.09;;;14.89;45.22
3812;BME280;1921;49.368;11.068;2024-03-29T08:40:45;96086.03;;;14.43;46.21
3812;BME280;1921;49.368;11.068;2024-03-29T08:43:14;96035.09;;;14.05;46.32
3812;BME280;1921;49.368;11.068;2024-03-29T08:45:41;96046.53;;;13.99;48.43
3812;BME280;1921;49.368;11.068;2024-03-29T08:48:07;96029.91;;;13.77;47.79
3812;BME280;1921;49.368;11.068;2024-03-29T08:50:34;96064.34;;;13.40;47.70
3812;BME280;1921;49.368;11.068;2024-03-29T08:53:02;96060.41;;;13.14;49.08
3812;BME280;1921;49.368;11.068;2024-03-29T08:55:32;96108.13;;;13.04;52.12
3812;BME280;1921;49.368;11.068;2024-03-29T08:57:59;96121.75;;;12.83;52.41
3812;BME280;1921;49.368;11.068;2024-03-29T09:00:26;96134.81;;;12.48;54.90
3812;BME280;1921;49.368;11.068;2024-03-29T09:02:52;96170.56;;;12.24;56.62
3812;BME280;1921;49.368;11.068;2024-03-29T09:05:18;96153.19;;;11.88;56.82
3812;BME280;1921;49.368;11.068;2024-03-29T09:07:44;96188.72;;;11.70;56.80
3812;BME280;1921;49.368;11.068;2024-03-29T09:10:09;96179.81;;;11.41;59.58
3812;BME280;1921;49.368;11.068;2024-03-29T09:12:35;96208.34;;;11.36;62.25
3812;BME280;1921;49.368;11.068;2024-03-29T09:15:01;96174.50;;;10.86;65.32
3812;BME280;1921;49.368;11.068;2024-03-29T09:17:27;96237.59;;;11.01;68.27
3812;BME280;1921;49.368;11.068;2024-03-29T09:19:52;96203.06;;;10.49;71.92
3812;BME280;1921;49.368;11.068;2024-03-29T09:22:19;96243.66;;;10.39;72.76
3812;BME280;1921;49.368;11.068;2024-03-29T09:24:45;96164.78;;;9.80;75.88
3812;BME280;1921;49.368;11.068;2024-03-29T09:27:10;96203.94;;;9.98;76.23
3812;BME280;1921;49.368;11.068;2024-03-29T09:29:36;96205.63;;;9.80;77.43
3812;BME280;1921;49.368;11.068;2024-03-29T09:32:02;96223.63;;;9.94;80.40
3812;BME280;1921;49.368;11.068;2024-03-29T09:34:28;96227.63;;;9.90;80.27
3812;BME280;1921;49.368;11.068;2024-03-29T09:36:54;96155.66;;;9.64;81.47
3812;BME280;1921;49.368;11.068;2024-03-29T09:39:20;96168.56;;;9.84;80.91
3812;BME280;1921;49.368;11.068;2024-03-29T09:41:46;96280.66;;;10.54;82.13
3812;BME280;1921;49.368;11.068;2024-03-29T09:44:12;96288.38;;;10.67;83.14
3812;BME280;1921;49.368;11.068;2024-03-29T09:46:39;96255.97;;;10.57;83.89
3812;BME280;1921;49.368;11.068;2024-03-29T09:49:06;96252.16;;;10.84;85.37
3812;BME280;1921;49.368;11.068;2024-03-29T09:51:33;96266.69;;;11.23;85.17
3812;BME280;1921;49.368;11.068;2024-03-29T09:54:00;96201.59;;;11.10;79.85
3812;BME280;1921;49.368;11.068;2024-03-29T09:56:27;96249.00;;;11.50;80.08
3812;BME280;1921;49.368;11.068;2024-03-29T09:58:53;96218.38;;;11.39;79.54
3812;BME280;1921;49.368;11.068;2024-03-29T10:01:19;96201.69;;;11.22;80.34
3812;BME280;1921;49.368;11.068;2024-03-29T10:03:51;96266.69;;;11.67;82.91
3812;BME280;1921;49.368;11.068;2024-03-29T10:06:19;96213.56;;;11.18;82.93
3812;BME280;1921;49.368;11.068;2024-03-29T10:08:47;96203.75;;;11.38;84.14
3812;BME280;1921;49.368;11.068;2024-03-29T10:11:14;96211.34;;;10.96;84.28
3812;BME280;1921;49.368;11.068;2024-03-29T10:13:45;96187.50;;;10.05;92.49
3812;BME280;1921;49.368;11.068;2024-03-29T10:16:11;96201.13;;;10.45;91.56
3812;BME280;1921;49.368;11.068;2024-03-29T10:18:40;96180.13;;;10.65;91.13
3812;BME280;1921;49.368;11.068;2024-03-29T10:21:07;96167.75;;;11.03;91.95
3812;BME280;1921;49.368;11.068;2024-03-29T10:23:35;96197.34;;;11.52;90.15
3812;BME280;1921;49.368;11.068;2024-03-29T10:26:01;96205.41;;;11.51;87.31
3812;BME280;1921;49.368;11.068;2024-03-29T10:28:33;96220.63;;;11.72;87.03
3812;BME280;1921;49.368;11.068;2024-03-29T10:31:01;96194.09;;;11.75;87.68
3812;BME280;1921;49.368;11.068;2024-03-29T10:33:33;96161.50;;;11.78;87.92
3812;BME280;1921;49.368;11.068;2024-03-29T10:36:00;96221.13;;;12.59;85.32
3812;BME280;1921;49.368;11.068;2024-03-29T10:38:27;96215.91;;;12.71;81.95
3812;BME280;1921;49.368;11.068;2024-03-29T10:40:53;96222.91;;;13.12;81.85
3812;BME280;1921;49.368;11.068;2024-03-29T10:43:20;96216.22;;;13.05;79.27
3812;BME280;1921;49.368;11.068;2024-03-29T10:45:49;96219.53;;;13.24;79.88
3812;BME280;1921;49.368;11.068;2024-03-29T10:48:21;96197.41;;;13.19;78.49
3812;BME280;1921;49.368;11.068;2024-03-29T10:50:49;96207.25;;;13.24;76.23
3812;BME280;1921;49.368;11.068;2024-03-29T10:53:16;96259.03;;;13.57;76.85
3812;BME280;1921;49.368;11.068;2024-03-29T10:55:42;96241.72;;;13.33;76.57
3812;BME280;1921;49.368;11.068;2024-03-29T10:58:11;96197.53;;;13.01;78.41
3812;BME280;1921;49.368;11.068;2024-03-29T11:00:46;96246.41;;;13.31;78.07
3812;BME280;1921;49.368;11.068;2024-03-29T11:03:37;96252.19;;;13.21;77.63
3812;BME280;1921;49.368;11.068;2024-03-29T11:06:05;96240.06;;;12.97;79.11
3812;BME280;1921;49.368;11.068;2024-03-29T11:08:35;96191.91;;;12.51;80.82
3812;BME280;1921;49.368;11.068;2024-03-29T11:11:05;96168.22;;;12.46;80.86
3812;BME280;1921;49.368;11.068;2024-03-29T11:13:54;96186.34;;;12.59;81.04
3812;BME280;1921;49.368;11.068;2024-03-29T11:16:23;96113.59;;;12.14;79.40
3812;BME280;1921;49.368;11.068;2024-03-29T11:18:49;96152.94;;;11.89;79.76
3812;BME280;1921;49.368;11.068;2024-03-29T11:21:17;96166.84;;;12.01;80.67
3812;BME280;1921;49.368;11.068;2024-03-29T11:23:52;96153.22;;;11.99;81.07
3812;BME280;1921;49.368;11.068;2024-03-29T11:26:19;96173.25;;;12.05;81.01
3812;BME280;1921;49.368;11.068;2024-03-29T11:28:52;96160.75;;;12.07;80.72
3812;BME280;1921;49.368;11.068;2024-03-29T11:31:23;96174.50;;;12.15;79.43
3812;BME280;1921;49.368;11.068;2024-03-29T11:33:50;96132.38;;;12.23;77.83
3812;BME280;1921;49.368;11.068;2024-03-29T11:36:18;96151.97;;;12.32;77.82
3812;BME280;1921;49.368;11.068;2024-03-29T11:38:49;96149.66;;;12.24;76.00
3812;BME280;1921;49.368;11.068;2024-03-29T11:41:18;96098.47;;;11.93;76.88
3812;BME280;1921;49.368;11.068;2024-03-29T11:43:45;96141.97;;;12.40;76.79
3812;BME280;1921;49.368;11.068;2024-03-29T11:46:12;96170.00;;;12.87;74.93
3812;BME280;1921;49.368;11.068;2024-03-29T11:48:40;96157.59;;;12.94;73.57
3812;BME280;1921;49.368;11.068;2024-03-29T11:51:10;96129.03;;;13.04;75.05
3812;BME280;1921;49.368;11.068;2024-03-29T11:53:37;96146.38;;;13.57;71.04
3812;BME280;1921;49.368;11.068;2024-03-29T11:56:04;96154.63;;;13.78;70.85
3812;BME280;1921;49.368;11.068;2024-03-29T11:58:32;96144.06;;;14.01;70.69
3812;BME280;1921;49.368;11.068;2024-03-29T12:00:58;96137.38;;;14.39;66.53
3812;BME280;1921;49.368;11.068;2024-03-29T12:03:29;96097.53;;;14.08;66.72
3812;BME280;1921;49.368;11.068;2024-03-29T12:05:57;96119.53;;;14.07;67.05
3812;BME280;1921;49.368;11.068;2024-03-29T12:08:30;96130.91;;;14.13;68.09
3812;BME280;1921;49.368;11.068;2024-03-29T12:10:58;96112.34;;;14.31;68.64
3812;BME280;1921;49.368;11.068;2024-03-29T12:13:24;96132.69;;;14.41;66.11
3812;BME280;1921;49.368;11.068;2024-03-29T12:15:50;96117.22;;;14.73;65.23
3812;BME280;1921;49.368;11.068;2024-03-29T12:18:16;96078.88;;;14.72;64.35
3812;BME280;1921;49.368;11.068;2024-03-29T12:20:42;96110.44;;;14.94;63.39
3812;BME280;1921;49.368;11.068;2024-03-29T12:23:12;96130.16;;;15.79;60.97
3812;BME280;1921;49.368;11.068;2024-03-29T12:25:41;96098.56;;;16.01;59.85
3812;BME280;1921;49.368;11.068;2024-03-29T12:28:06;96109.19;;;16.11;57.74
3812;BME280;1921;49.368;11.068;2024-03-29T12:30:33;96086.66;;;16.20;59.92
3812;BME280;1921;49.368;11.068;2024-03-29T12:33:14;96059.75;;;16.82;56.67
3812;BME280;1921;49.368;11.068;2024-03-29T12:35:44;96073.75;;;17.50;54.89
3812;BME280;1921;49.368;11.068;2024-03-29T12:38:12;96065.84;;;17.40;54.92
3812;BME280;1921;49.368;11.068;2024-03-29T12:40:41;96055.00;;;16.10;57.72
3812;BME280;1921;49.368;11.068;2024-03-29T12:43:08;96068.16;;;16.79;55.01
3812;BME280;1921;49.368;11.068;2024-03-29T12:45:39;96043.88;;;17.14;53.99
3812;BME280;1921;49.368;11.068;2024-03-29T12:48:17;96063.19;;;16.88;52.27
3812;BME280;1921;49.368;11.068;2024-03-29T12:50:44;96026.16;;;17.05;53.89
3812;BME280;1921;49.368;11.068;2024-03-29T12:53:12;96056.75;;;17.94;50.89
3812;BME280;1921;49.368;11.068;2024-03-29T12:55:40;96017.19;;;17.94;51.14
3812;BME280;1921;49.368;11.068;2024-03-29T12:58:10;96025.88;;;17.74;49.71
3812;BME280;1921;49.368;11.068;2024-03-29T13:00:37;96020.81;;;17.67;51.09
3812;BME280;1921;49.368;11.068;2024-03-29T13:03:04;96071.22;;;17.76;51.29
3812;BME280;1921;49.368;11.068;2024-03-29T13:05:31;96027.34;;;17.44;51.22
3812;BME280;1921;49.368;11.068;2024-03-29T13:08:04;96030.78;;;17.40;52.17
3812;BME280;1921;49.368;11.068;2024-03-29T13:10:33;96026.28;;;17.35;51.50
3812;BME280;1921;49.368;11.068;2024-03-29T13:12:59;96029.38;;;17.17;52.54
3812;BME280;1921;49.368;11.068;2024-03-29T13:15:27;96049.25;;;17.55;52.60
3812;BME280;1921;49.368;11.068;2024-03-29T13:17:56;96027.78;;;16.68;53.10